Dancy, Mississippi
Current Conditions -  °F | °C
As of 2:35 AM on Monday 29 Dec 2014 (Local Time) from KSTF Reporting Station
Overcast Overcast  
Wind Chill: 43°   Ceiling: 500
Heat Index: 43°   Visibility: 7mi
Dew Point: 41°   Wind: 3mph
Humidity: 93%   Direction: 360°N
Pressure: 30.12"   Gusts: NA
Location:  33.6711°N, 89.1329°W
Report Text: KSTF 290835Z AUTO 36003KT 7SM OVC005 06/05 A3012 RMK AO2
Loading
Personal Weather Stations






























Interactive Weather Map New forecast layout! Learn more

10-Day Weather Forecast

Advertisements
Track Severe Weather on mobile